Cumberland House, Canada
Current Conditions -  °F | °C
As of 8:00 PM on Thursday 20 Nov 2014 (Local Time) from CYQD Reporting Station
Overcast Overcast  
Wind Chill:   Ceiling: 6000
Heat Index: 14°   Visibility: 15mi
Dew Point:   Wind: 12mph
Humidity: 73%   Direction: 160°SSE
Pressure: 29.73"   Gusts: NA
Location:  53.95°N, 102.27°W
Report Text: CYQD 210200Z 16010KT 15SM OVC060 M10/M14 A2973 RMK SC8 SLP093
Loading
Personal Weather Stations






























Interactive Weather Map New forecast layout! Learn more

10-Day Weather Forecast

Advertisements
Track Severe Weather on mobile